Results for Dark Forest Enduro - 01-Ιουλ-2018 - Provisional

Class Results

E-Bike

Overall

Pos No. Name Team/Country Category Time Behind PS1 PS2 PS3 PS4 Excl Excess
1st 119 Prekkas Spyros NIKOS ANDREOPOULOS COACHING (GRE)   19:41.84   3:09.53 1st 9:39.96 1st 3:24.07 1st 3:28.28 1st  

Hardtail

Overall

Pos No. Name Team/Country Category Time Behind PS1 PS2 PS3 PS4 Excl Excess
1st 114 Kontos Giorgos (GRE)   19:50.80   3:03.98 2nd 9:56.79 3rd 3:47.49 3rd 3:02.54 1st  
2nd 112 Evmorfopoulos Konstantinos (GRE)   19:59.65 +0:08.85 3:18.72 4th 9:31.67 1st 3:43.04 1st 3:26.22 2nd  
3rd 111 Alatzogiannis Ioannis Silgo - silgographics.gr (GRE)   20:28.00 +0:37.20 3:07.78 3rd 9:52.66 2nd 3:45.29 2nd 3:42.27 3rd  
4th 116 Anthimos Kostandinos Tzortzopoulos bikes (GRE)   21:42.68 +1:51.88 3:31.39 5th 10:15.77 5th 4:00.50 5th 3:55.02 4th  
5th 42 Tsamaslidis Giorgos Action bike club-specialized (GRE)   22:04.60 +2:13.80 3:53.90 7th 10:10.53 4th 3:55.67 4th 4:04.50 5th  
6th 106 Dendrinos Aristidis Psycho Wheeler Team (GRE)   24:44.82 +4:54.02 4:24.23 8th 11:22.19 8th 4:26.73 7th 4:31.67 7th  
7th 59 Mpougatsas Ioannis Σχολη οδηγων (GRE)   24:49.11 +4:58.31 5:07.74 11th 11:09.68 6th 4:16.88 6th 4:14.81 6th  
8th 61 Michalopoulos Nestoras Kaggela Pantoy (GRE)   25:35.33 +5:44.53 5:05.51 10th 11:09.80 7th 4:37.74 8th 4:42.28 9th  
9th 27 Kazantzas Dimitris 2 ????? CREW (GRE)   28:42.30 +8:51.50 5:24.04 12th 12:47.30 10th 5:13.67 10th 5:17.29 10th  
10th 1 Loutas Panos Asopia Team Kiato (GRE)   34:52.28 +15:01.48 3:48.66 6th 12:08.47 9th 5:06.29 9th 4:36.43 8th 9:12.43
  38 Psaradellis Dimitrios Del mama espresso bar (GRE)   DNF   4:58.04 9th 12:54.97 11th         2:40.81
  78 Vlysidis Themistoklis Mt.Aigaleo Racing Crew (GRE)   DNF   2:52.57 1st 13:35.61 12th          

Junior

Overall

Pos No. Name Team/Country Category Time Behind PS1 PS2 PS3 PS4 Excl Excess
1st 109 Zotos Sokratis (GRE)   19:22.89   3:12.27 5th 8:59.86 1st 3:47.09 5th 3:23.67 5th  
2nd 58 Triantafillou Vasilis ΠΟΔΗΛΑΤΙΚΟΣ ΣΥΛΛΟΓΟΣ ΛΕΣΒΟΥ (GRE)   19:40.26 +0:17.37 2:52.76 2nd 9:44.05 3rd 3:43.79 3rd 3:19.66 4th  
3rd 105 Valilis Panagiotis (GRE)   19:50.93 +0:28.04 3:07.30 4th 9:45.09 4th 3:42.16 1st 3:16.38 3rd  
4th 127 Koufaliotis Kleomenis (GRE)   19:54.20 +0:31.31 3:16.70 6th 9:42.73 2nd 3:42.85 2nd 3:11.92 2nd  
5th 129 Panagiotopoulos Dimitris Mahalo Dudes (GRE)   20:16.51 +0:53.62 2:42.44 1st 10:46.93 7th 3:45.77 4th 3:01.37 1st  
6th 79 Gerontopoulos Nikolas True Wheels (GRE)   21:01.58 +1:38.69 3:05.04 3rd 10:11.05 5th 4:07.29 8th 3:24.38 6th 0:13.82
7th 132 Paravantis Kuriakos (GRE)   22:05.70 +2:42.81 3:35.86 8th 10:37.68 6th 4:05.92 7th 3:46.24 8th  
8th 104 Papaioanou Nikos (GRE)   22:48.63 +3:25.74 3:35.16 7th 11:19.07 8th 4:15.02 9th 3:39.38 7th  
9th 141 Sidiropoulos Ilias Mahalo Dudes (GRE)   23:13.03 +3:50.14 4:00.37 9th 11:24.79 9th 3:59.51 6th 3:48.36 9th  

Masters

Overall

Pos No. Name Team/Country Category Time Behind PS1 PS2 PS3 PS4 Excl Excess
1st 124 Sakellarakis Ernestos hard enduro (GRE)   18:37.51   2:42.47 2nd 9:03.35 1st 3:41.95 1st 3:09.74 1st  
2nd 147 Patsalos Dimitris (GRE)   19:09.79 +0:32.28 2:41.63 1st 9:29.78 3rd 3:44.52 2nd 3:13.86 2nd  
3rd 94 Krikelis Dimitris (GRE)   19:43.27 +1:05.76 3:02.57 6th 9:19.06 2nd 3:46.32 4th 3:35.32 9th  
4th 133 Mpatis Alexandros (GRE)   19:47.61 +1:10.10 2:49.36 3rd 9:47.78 4th 3:56.53 6th 3:13.94 3rd  
5th 131 Manavopoulos Konstantinos (GRE)   20:30.17 +1:52.66 2:57.24 4th 10:12.48 6th 3:59.11 7th 3:21.34 4th  
6th 130 Eustathiou Karolos (GRE)   20:58.67 +2:21.16 3:01.59 5th 10:11.95 5th 4:12.23 10th 3:32.90 7th  
7th 150 Adamos Nontas (GRE)   21:14.86 +2:37.35 3:25.91 11th 10:18.21 8th 3:45.34 3rd 3:45.40 13th  
8th 120 Kountouris Petros ZeneTeam (GRE)   21:22.63 +2:45.12 3:11.93 8th 10:20.75 10th 4:01.86 8th 3:48.09 15th  
9th 60 Grapsas Thomas (GRE)   21:26.71 +2:49.20 3:40.25 14th 10:16.47 7th 3:55.17 5th 3:34.82 8th  
10th 51 Aloukos Ioannis (GRE)   21:32.08 +2:54.57 3:33.96 12th 10:18.51 9th 4:02.76 9th 3:36.85 10th  
11th 142 Siafliakis Vasilios Cubicon-Enduro Team Larisa (GRE)   21:42.02 +3:04.51 3:12.83 9th 10:42.66 11th 4:14.85 11th 3:31.68 6th  
12th 40 Memakis Michalis (GRE)   22:13.48 +3:35.97 3:08.31 7th 11:03.16 13th 4:23.58 14th 3:38.43 11th  
13th 46 Sotirakis Vasilis (GRE)   22:47.98 +4:10.47 3:41.67 15th 11:07.27 15th 4:15.33 12th 3:43.71 12th  
14th 121 Zaxariou Georgios 0R+ (GRE)   22:53.16 +4:15.65 3:35.81 13th 10:59.26 12th 4:30.80 16th 3:47.29 14th  
15th 85 Mpoulafentis Giorgos Κουρκουδιαλοι (GRE)   23:44.56 +5:07.05 4:16.04 18th 11:04.68 14th 4:17.11 13th 4:06.73 16th  
16th 95 Miliaris Manos (GRE)   26:18.81 +7:41.30 4:50.33 19th 12:33.07 18th 4:43.37 17th 4:12.04 17th  
17th 148 Silelis Dimitrios Bike-30 (GRE)   26:25.07 +7:47.56 4:10.21 17th 12:07.04 17th 5:34.71 20th 4:33.11 19th  
18th 31 Zagos Dimitris (GRE)   31:14.56 +12:37.05 8:00.38 22nd 13:03.89 20th 5:02.01 19th 5:08.28 20th  
19th 118 Kalantzis Kostas (GRE)   32:25.14 +13:47.63 3:16.76 10th 11:23.23 16th 4:23.62 15th 3:21.40 5th 10:00.13
20th 107 Syrianos Antonis (GRE)   42:35.94 +23:58.43 3:47.54 16th 12:34.36 19th 4:56.16 18th 4:17.67 18th 17:00.21
  123 Mixail Christos ΠΔΣ Οδυσσέας (GRE)   DNF   6:51.87 21st 13:28.83 21st 5:42.82 21st     11:08.92
  17 Roubas Thomas     DNF   6:40.52 20th 15:19.09 22nd          
  98 Liontos Panagiotis TRUE WHEELS (GRE)   DNF                    

Men

Overall

Pos No. Name Team/Country Category Time Behind PS1 PS2 PS3 PS4 Excl Excess
1st 11 Tsalafoutas Grigoris (GRE)   16:08.16   2:14.04 1st 8:01.51 2nd 3:08.93 3rd 2:43.68 1st  
2nd 77 Gouvis Elissaios Scott-Fox (GRE)   16:19.35 +0:11.19 2:27.60 2nd 8:01.28 1st 3:06.73 2nd 2:43.74 2nd  
3rd 53 Mpoumparis Ksenofon Chios MTB (GRE)   16:59.18 +0:51.02 2:31.95 4th 8:20.79 3rd 3:09.28 4th 2:57.16 7th  
4th 0 Danis Karamichailidis Sick n' Destroyed (GRE)   17:03.26 +0:55.10 2:38.45 8th 8:29.84 4th 3:03.77 1st 2:51.20 3rd  
5th 47 Kavvadas Vaggelis Bike N' Roll (GRE)   17:38.32 +1:30.16 2:44.80 9th 8:31.29 5th 3:25.35 14th 2:56.88 6th  
6th 4 Papageorgiou Alexandros Action Bike Club (GRE)   17:38.71 +1:30.55 2:35.75 6th 8:42.69 6th 3:13.73 5th 3:06.54 9th  
7th 44 Velokas Apostolos (GRE)   17:43.69 +1:35.53 2:33.36 5th 8:53.47 8th 3:22.38 9th 2:54.48 5th  
8th 69 Logginidis Alexandros Mt. Aigaleo Racing Crew (GRE)   18:14.64 +2:06.48 2:49.26 11th 8:46.94 7th 3:21.21 7th 3:17.23 23rd  
9th 149 Baldimtsis Anastasis PharmNet.gr - BikeThirty (GRE)   18:33.91 +2:25.75 2:58.09 22nd 8:58.12 9th 3:18.93 6th 3:18.77 29th  
10th 84 Stilianoudakis Michalis (GRE)   18:37.23 +2:29.07 2:52.71 16th 9:02.72 10th 3:32.61 19th 3:09.19 12th  
11th 82 Mixail Kostas True Wheels (GRE)   18:40.58 +2:32.42 2:59.28 26th 9:04.03 11th 3:22.79 10th 3:14.48 18th  
12th 30 Petroutsos Alexandros Moustakas Bikes/Pharmnet.gr/Paradox Kinetics (GRE)   18:43.24 +2:35.08 2:49.34 12th 9:14.25 15th 3:28.26 16th 3:11.39 13th  
13th 35 Giannoulis Panagiotis Lesvos Cycling Club (GRE)   18:47.32 +2:39.16 2:55.04 18th 9:14.55 17th 3:24.76 13th 3:12.97 14th  
14th 117 Kouskousakis Spiros Chios MTB (GRE)   18:48.81 +2:40.65 3:06.04 35th 9:06.28 12th 3:21.82 8th 3:14.67 19th  
15th 99 Kaltsis Giorgos Flow Trail MTB Outdoors (GRE)   18:51.21 +2:43.05 2:53.19 17th 9:14.49 16th 3:36.37 23rd 3:07.16 10th  
16th 115 Marselos Kostas (GRE)   18:55.72 +2:47.56 3:02.34 31st 9:11.41 14th 3:28.31 17th 3:13.66 16th  
17th 73 Charalambidis Charalambos ROLLING STONED (GRE)   18:57.82 +2:49.66 3:05.37 34th 9:10.42 13th 3:28.90 18th 3:13.13 15th  
18th 65 Potamitis Konstantinos (GRE)   18:58.58 +2:50.42 2:58.37 23rd 9:17.11 18th 3:26.79 15th 3:16.31 22nd  
19th 110 Mavrakos Mpampis ROLLING STONED (GRE)   19:20.34 +3:12.18 2:59.23 25th 9:26.59 20th 3:36.02 22nd 3:18.50 28th  
20th 71 Kalogerakis Kostas (GRE)   19:23.08 +3:14.92 3:00.65 29th 9:28.46 22nd 3:35.02 21st 3:18.95 30th  
21st 80 Rados Spiros ProAction/ Cube (GRE)   19:29.68 +3:21.52 2:49.39 13th 9:44.97 30th 3:34.85 20th 3:20.47 35th  
22nd 24 Psarros Stavros (GRE)   19:33.63 +3:25.47 2:58.64 24th 9:29.29 24th 3:43.08 29th 3:22.62 37th  
23rd 26 Tsintsikloglou Timotheos Saracen Greece (GRE)   19:38.23 +3:30.07 2:48.64 10th 9:57.42 39th 3:44.88 31st 3:07.29 11th  
24th 57 Stratis Anagnostou Anagno Cycles (GRE)   19:41.61 +3:33.45 2:55.81 19th 9:28.71 23rd 3:55.40 46th 3:21.69 36th  
25th 32 Kallioras Vasilis Λέσχη Ορεινής Ποδηλασίας Πατρών (GRE)   19:46.31 +3:38.15 2:57.04 20th 9:44.94 29th 3:49.44 43rd 3:14.89 20th  
26th 102 Farakoukis Andreas (GRE)   19:48.78 +3:40.62 3:09.29 38th 9:42.38 26th 3:38.85 25th 3:18.26 25th  
27th 74 Koudounakis Emmanouil ΠΔΣ Οδυσσέας (GRE)   19:53.27 +3:45.11 3:14.30 46th 9:24.94 19th 3:47.53 39th 3:26.50 44th  
28th 55 Apostolou Giorgos (GRE)   20:04.65 +3:56.49 2:51.66 15th 10:07.82 46th 3:45.50 33rd= 3:19.67 33rd  
29th 90 Lentzas Georgios Sick and Destroyed (GRE)   20:05.95 +3:57.79 3:01.93 30th 10:03.53 43rd 3:46.31 36th 3:14.18 17th  
30th 33 Kostopoulos Georgios (GRE)   20:09.91 +4:01.75 3:04.22 32nd 9:44.80 28th 4:05.28 59th 3:15.61 21st  
31st 2 Alessio Toninelli Momentum MTB Academy (ITA)   20:15.26 +4:07.10 3:09.01 37th 9:50.54 35th 3:56.32 48th 3:19.39 32nd  
32nd 37 Kountouroudis Leuteris Chios MTB (GRE)   20:21.69 +4:13.53 3:27.19 56th 9:47.74 32nd 3:42.80 27th 3:23.96 40th  
33rd 101 Golfos Konstantinos Chios MTB (GRE)   20:22.77 +4:14.61 3:13.05 42nd 9:49.27 33rd 3:48.56 40th 3:31.89 47th  
34th 72 Karathanos Costas (GRE)   20:23.19 +4:15.03 3:22.01 50th 9:47.17 31st 3:45.70 35th 3:28.31 45th  
35th 49 Fourlas Giorgos (GRE)   20:26.81 +4:18.65 3:13.13 45th 10:09.77 48th 3:45.50 33rd= 3:18.41 26th  
36th 56 Rokkakis Manos Del mama espresso bar (GRE)   20:27.30 +4:19.14 3:05.18 33rd 9:59.76 41st 3:56.18 47th 3:26.18 42nd  
37th 63 Syrivelis Kostas (GRE)   20:27.76 +4:19.60 3:08.10 36th 9:50.27 34th 3:49.05 42nd 3:40.34 56th  
38th 113 Sezenias Mixalis CHIOS MTB (GRE)   20:31.10 +4:22.94 3:00.50 28th 9:58.39 40th 3:56.46 49th 3:35.75 53rd  
39th 52 Mpartzis Dimitris Flow Riders (GRE)   20:31.58 +4:23.42 3:10.77 40th 9:55.87 37th 4:01.24 55th 3:23.70 39th  
40th 125 Skordas Konstantinos hard enduro (GRE)   20:35.32 +4:27.16 2:59.90 27th 10:09.95 49th 4:05.26 58th 3:20.21 34th  
41st 28 Kasapoglou Iordanis Xploretrails (GRE)   20:36.36 +4:28.20 3:20.54 49th 9:56.04 38th 3:47.45 38th 3:32.33 48th  
42nd 16 Polychronopoulos Evagelos     20:40.17 +4:32.01 2:50.65 14th 9:41.36 25th 3:43.00 28th 4:25.16 74th  
43rd 89 Tsiris Ilias Goat riders preveza (GRE)   20:42.03 +4:33.87 3:25.20 53rd 9:43.03 27th 3:45.29 32nd 3:48.51 60th  
44th 68 Danias Giannis ABALLON ENDURO TEAM (GRE)   20:43.49 +4:35.33 3:12.52 41st 10:15.24 51st 3:56.57 51st 3:19.16 31st  
45th 100 Rizoglou Panagiotis (GRE)   20:49.73 +4:41.57 3:22.61 51st 10:04.83 45th 3:46.96 37th 3:35.33 51st  
46th 128 Varvitsiotis Konstantinos MIDDLE EARTH RACING (GRE)   20:50.89 +4:42.73 3:28.21 59th 10:03.70 44th 3:53.38 44th 3:17.89 24th 0:07.71
47th 64 Giannakopoulos Konstantinos Pelion (GRE)   21:01.10 +4:52.94 3:33.69 61st 9:53.70 36th 3:44.32 30th 3:49.39 61st  
48th 76 Mpakalis Dimitris ROLLING STONED (GRE)   21:03.19 +4:55.03 3:27.46 58th 10:01.87 42nd 3:48.97 41st 3:44.89 58th  
49th 93 Gkois Panagiotis (GRE)   21:15.69 +5:07.53 3:09.40 39th 10:25.45 52nd 4:04.68 57th 3:36.16 54th  
50th 36 Chasiotis Thanos (GRE)   21:16.42 +5:08.26 3:27.40 57th 10:14.88 50th 4:01.32 56th 3:32.82 49th  
51st 66 Kordolemis Panagiotis ENDURO TEAM CHALKIS (GRE)   21:17.18 +5:09.02 3:13.07 43rd 10:40.28 56th 3:59.41 54th 3:24.42 41st  
52nd 144 Tsalikis Panagiotis Cubicon-Enduro Team Larissa (GRE)   21:32.69 +5:24.53 2:57.26 21st 11:22.35 65th 3:54.65 45th 3:18.43 27th  
53rd 67 Karozis Stylianos Chalkis enduro (GRE)   21:48.29 +5:40.13 3:41.60 64th 10:28.75 53rd 3:57.86 52nd 3:40.08 55th  
54th 145 Sklavounos Thanos (GRE)   21:57.76 +5:49.60 3:15.49 47th 10:32.20 54th 4:43.86 76th 3:26.21 43rd  
55th 138 Pallas Georgios (GRE)   22:00.02 +5:51.86 3:27.17 55th 10:43.24 58th 4:14.17 62nd 3:35.44 52nd  
56th 62 Galanis Georgios Κολανατοι (GRE)   22:00.99 +5:52.83 3:17.94 48th 9:26.67 21st 3:40.03 26th 5:36.35 80th  
57th 54 Athanasiou Nikos (GRE)   22:19.15 +6:10.99 3:13.10 44th 11:18.55 64th 3:56.54 50th 3:50.96 62nd  
58th 39 Sermpis Spiros (GRE)   22:20.73 +6:12.57 3:40.30 62nd 10:34.92 55th 4:22.11 67th 3:43.40 57th  
59th 48 Koskinas Nikos Bike N' Roll (GRE)   22:31.02 +6:22.86 3:47.70 68th 11:15.51 61st 3:58.03 53rd 3:29.78 46th  
60th 92 Alamanos Giorgos Goat riders preveza (GRE)   22:45.88 +6:37.72 3:42.81 65th 10:42.74 57th 4:25.61 69th 3:54.72 65th  
61st 96 Ksideas Theofrastos (GRE)   22:46.79 +6:38.63 3:25.99 54th 10:08.20 47th 3:36.84 24th 3:35.25 50th 2:00.51
62nd 136 Dimoliatis Dimitris DTF-POWER (GRE)   23:41.95 +7:33.79 3:23.34 52nd 11:29.74 66th 4:06.06 60th 3:23.37 38th 1:19.44
63rd 91 Lentzas Dimitrios (GRE)   23:41.95 +7:33.79 4:01.92 71st 11:17.89 63rd 4:20.44 65th 4:01.70 70th  
64th 88 Synapidis Apollonas     23:53.13 +7:44.97 4:24.40 74th 10:46.38 59th 4:15.27 63rd 4:27.08 75th  
65th 83 Mauroeidis Konstantinos ROLLING STONED (GRE)   24:00.95 +7:52.79 4:46.66 78th 11:04.90 60th 4:17.09 64th 3:52.30 64th  
66th 81 Kazantzas Dimitris ProAction/ Cube (GRE)   24:17.40 +8:09.24 3:45.99 67th 12:13.58 74th 4:25.65 70th 3:52.18 63rd  
67th 34 Panagiotopoulos Ioannis ΛΟΠΠ ΕΡΥΜΑΝΘΙΟΣ ΚΑΦΡΟΣ (GRE)   24:44.34 +8:36.18 3:50.83 69th 11:52.77 70th 4:49.12 79th 4:11.62 71st  
68th 139 Tsolkas Odysseas Middle Earth Racing (GRE)   24:45.05 +8:36.89 4:36.34 77th 11:35.55 68th 4:21.10 66th 4:12.06 72nd  
69th 43 Korizis Georgios Flow Riders (GRE)   25:01.16 +8:53.00 3:43.39 66th 12:42.41 78th 4:35.23 72nd 4:00.13 69th  
70th 29 Charitos Dimitris ????? CREW (GRE)   25:10.77 +9:02.61 4:05.84 72nd 12:39.96 77th 4:38.64 74th 3:46.33 59th  
71st 146 Poultsidis Thanos Cubicon (GRE)   25:43.84 +9:35.68 4:25.88 75th 12:20.06 75th 4:44.05 77th 4:13.85 73rd  
72nd 143 Korfiatis John (GRE)   26:31.31 +10:23.15 2:37.98 7th 17:30.09 82nd 3:23.20 12th 3:00.04 8th  
73rd 70 Kaponis Giorgos (GRE)   27:10.86 +11:02.70 2:30.85 3rd 18:25.83 83rd 3:22.94 11th 2:51.24 4th  
74th 108 Georgitsis Giannis PSYCHOWEELER (GRE)   27:13.45 +11:05.29 3:31.62 60th 11:34.53 67th 4:35.43 73rd 3:58.08 67th 3:33.79
75th 75 Raptis Christos Ποδηλατικος Συλλογος Ωραιοκαστρου (GRE)   27:25.49 +11:17.33 6:05.02 82nd 11:35.63 69th 4:23.53 68th 5:21.31 79th  
76th 103 Arfanis Dimitris (GRE)   27:31.91 +11:23.75 4:15.38 73rd 13:11.00 80th 5:16.65 82nd 4:48.88 76th  
77th 50 Marakis Ioulianos Flow Riders (GRE)   27:36.34 +11:28.18 5:50.83 81st 12:02.65 72nd 4:30.54 71st 5:12.32 78th  
78th 126 Mpirtsias Georgios Π.Δ.Σ. Οδυσσεας (GRE)   27:37.88 +11:29.72 4:33.91 76th 12:45.86 79th 5:15.80 81st 5:02.31 77th  
79th 45 Psarakis Giannis Flow Riders (GRE)   29:22.83 +13:14.67 3:40.68 63rd 12:31.54 76th 4:40.52 75th 3:58.21 68th 4:31.88
80th 135 Tsirpos Ioannis DTF-POWER (GRE)   38:58.61 +22:50.45 16:31.05 83rd 12:03.03 73rd 4:44.29 78th 3:56.47 66th 1:43.77
81st 134 Maratheftis John (GRE)   47:30.18 +31:22.02 20:12.55 84th 16:21.69 81st 5:06.27 80th 5:49.67 81st  
82nd 41 Siabanis Panagiotis ΛΕΣΧΗ ΟΡΕΙΝΗΣ ΠΟΔΗΛΑΣΙΑΣ ΠΑΤΡΑΣ (GRE)   72:12.54 +56:04.38 3:59.09 70th 11:15.97 62nd 8:25.33 83rd 36:04.59 82nd 12:27.56
  97 Dokianakis Fanis (GRE)   DNF   4:48.47 79th 18:47.83 84th 4:14.07 61st     1:37.22
  137 Kakousis Dimitris (GRE)   DNF   5:35.89 80th 12:00.16 71st 11:50.30 84th     5:42.04

Women

Overall

Pos No. Name Team/Country Category Time Behind PS1 PS2 PS3 PS4 Excl Excess
1st 87 Lazopoulou Vaso (GRE)   22:07.50   3:50.23 2nd 10:12.74 1st 4:07.20 1st 3:57.33 1st  
2nd 86 Stasinou Niovi (GRE)   23:00.66 +0:53.16 3:31.76 1st 11:14.95 2nd 4:15.59 2nd 3:58.36 2nd  
3rd 122 Mouzaki Eutuxia ZeneTeam (GRE)   43:09.48 +21:01.98 9:16.40 3rd 17:38.59 3rd 6:54.53 3rd 9:19.96 3rd  
Course Results

Dark Forest Enduro

Overall

Pos No. Name Team/Country Category Class Time Behind PS1 PS2 PS3 PS4 Excl Excess
1st 11 Tsalafoutas Grigoris (GRE)   Men 16:08.16   2:14.04 1st 8:01.51 2nd 3:08.93 3rd 2:43.68 1st  
2nd 77 Gouvis Elissaios Scott-Fox (GRE)   Men 16:19.35 +0:11.19 2:27.60 2nd 8:01.28 1st 3:06.73 2nd 2:43.74 2nd  
3rd 53 Mpoumparis Ksenofon Chios MTB (GRE)   Men 16:59.18 +0:51.02 2:31.95 4th 8:20.79 3rd 3:09.28 4th 2:57.16 7th  
4th 0 Danis Karamichailidis Sick n' Destroyed (GRE)   Men 17:03.26 +0:55.10 2:38.45 8th 8:29.84 4th 3:03.77 1st 2:51.20 3rd  
5th 47 Kavvadas Vaggelis Bike N' Roll (GRE)   Men 17:38.32 +1:30.16 2:44.80 12th 8:31.29 5th 3:25.35 15th 2:56.88 6th  
6th 4 Papageorgiou Alexandros Action Bike Club (GRE)   Men 17:38.71 +1:30.55 2:35.75 6th 8:42.69 6th 3:13.73 5th 3:06.54 11th  
7th 44 Velokas Apostolos (GRE)   Men 17:43.69 +1:35.53 2:33.36 5th 8:53.47 8th 3:22.38 9th 2:54.48 5th  
8th 69 Logginidis Alexandros Mt. Aigaleo Racing Crew (GRE)   Men 18:14.64 +2:06.48 2:49.26 14th 8:46.94 7th 3:21.21 7th 3:17.23 30th  
9th 149 Baldimtsis Anastasis PharmNet.gr - BikeThirty (GRE)   Men 18:33.91 +2:25.75 2:58.09 29th 8:58.12 9th 3:18.93 6th 3:18.77 36th  
10th 84 Stilianoudakis Michalis (GRE)   Men 18:37.23 +2:29.07 2:52.71 21st 9:02.72 11th 3:32.61 20th 3:09.19 14th  
11th 124 Sakellarakis Ernestos hard enduro (GRE)   Masters 18:37.51 +2:29.35 2:42.47 11th 9:03.35 12th 3:41.95 28th 3:09.74 15th  
12th 82 Mixail Kostas True Wheels (GRE)   Men 18:40.58 +2:32.42 2:59.28 33rd 9:04.03 13th 3:22.79 10th 3:14.48 24th  
13th 30 Petroutsos Alexandros Moustakas Bikes/Pharmnet.gr/Paradox Kinetics (GRE)   Men 18:43.24 +2:35.08 2:49.34 15th 9:14.25 17th 3:28.26 17th 3:11.39 16th  
14th 35 Giannoulis Panagiotis Lesvos Cycling Club (GRE)   Men 18:47.32 +2:39.16 2:55.04 24th 9:14.55 19th 3:24.76 14th 3:12.97 18th  
15th 117 Kouskousakis Spiros Chios MTB (GRE)   Men 18:48.81 +2:40.65 3:06.04 46th 9:06.28 14th 3:21.82 8th 3:14.67 25th  
16th 99 Kaltsis Giorgos Flow Trail MTB Outdoors (GRE)   Men 18:51.21 +2:43.05 2:53.19 23rd 9:14.49 18th 3:36.37 24th 3:07.16 12th  
17th 115 Marselos Kostas (GRE)   Men 18:55.72 +2:47.56 3:02.34 39th 9:11.41 16th 3:28.31 18th 3:13.66 20th  
18th 73 Charalambidis Charalambos ROLLING STONED (GRE)   Men 18:57.82 +2:49.66 3:05.37 45th 9:10.42 15th 3:28.90 19th 3:13.13 19th  
19th 65 Potamitis Konstantinos (GRE)   Men 18:58.58 +2:50.42 2:58.37 30th 9:17.11 20th 3:26.79 16th 3:16.31 28th  
20th 147 Patsalos Dimitris (GRE)   Masters 19:09.79 +3:01.63 2:41.63 9th 9:29.78 28th 3:44.52 37th 3:13.86 21st  
21st 110 Mavrakos Mpampis ROLLING STONED (GRE)   Men 19:20.34 +3:12.18 2:59.23 32nd 9:26.59 23rd 3:36.02 23rd 3:18.50 35th  
22nd 109 Zotos Sokratis (GRE)   Junior 19:22.89 +3:14.73 3:12.27 57th 8:59.86 10th 3:47.09 49th 3:23.67 49th  
23rd 71 Kalogerakis Kostas (GRE)   Men 19:23.08 +3:14.92 3:00.65 36th 9:28.46 25th 3:35.02 22nd 3:18.95 37th  
24th 80 Rados Spiros ProAction/ Cube (GRE)   Men 19:29.68 +3:21.52 2:49.39 17th 9:44.97 38th 3:34.85 21st 3:20.47 43rd  
25th 24 Psarros Stavros (GRE)   Men 19:33.63 +3:25.47 2:58.64 31st 9:29.29 27th 3:43.08 34th 3:22.62 47th  
26th 26 Tsintsikloglou Timotheos Saracen Greece (GRE)   Men 19:38.23 +3:30.07 2:48.64 13th 9:57.42 51st 3:44.88 38th 3:07.29 13th  
27th 58 Triantafillou Vasilis ΠΟΔΗΛΑΤΙΚΟΣ ΣΥΛΛΟΓΟΣ ΛΕΣΒΟΥ (GRE)   Junior 19:40.26 +3:32.10 2:52.76 22nd 9:44.05 35th 3:43.79 35th 3:19.66 40th  
28th 57 Stratis Anagnostou Anagno Cycles (GRE)   Men 19:41.61 +3:33.45 2:55.81 25th 9:28.71 26th 3:55.40 60th 3:21.69 46th  
29th 119 Prekkas Spyros NIKOS ANDREOPOULOS COACHING (GRE)   E-Bike 19:41.84 +3:33.68 3:09.53 54th 9:39.96 30th 3:24.07 13th 3:28.28 58th  
30th 94 Krikelis Dimitris (GRE)   Masters 19:43.27 +3:35.11 3:02.57 40th 9:19.06 21st 3:46.32 47th 3:35.32 68th  
31st 32 Kallioras Vasilis Λέσχη Ορεινής Ποδηλασίας Πατρών (GRE)   Men 19:46.31 +3:38.15 2:57.04 26th 9:44.94 37th 3:49.44 56th 3:14.89 26th  
32nd 133 Mpatis Alexandros (GRE)   Masters 19:47.61 +3:39.45 2:49.36 16th 9:47.78 42nd 3:56.53 65th 3:13.94 22nd  
33rd 102 Farakoukis Andreas (GRE)   Men 19:48.78 +3:40.62 3:09.29 52nd 9:42.38 32nd 3:38.85 26th 3:18.26 32nd  
34th 114 Kontos Giorgos (GRE)   Hardtail 19:50.80 +3:42.64 3:03.98 41st 9:56.79 50th 3:47.49 51st 3:02.54 10th  
35th 105 Valilis Panagiotis (GRE)   Junior 19:50.93 +3:42.77 3:07.30 47th 9:45.09 39th 3:42.16 29th 3:16.38 29th  
36th 74 Koudounakis Emmanouil ΠΔΣ Οδυσσέας (GRE)   Men 19:53.27 +3:45.11 3:14.30 64th 9:24.94 22nd 3:47.53 52nd 3:26.50 57th  
37th 127 Koufaliotis Kleomenis (GRE)   Junior 19:54.20 +3:46.04 3:16.70 66th 9:42.73 33rd 3:42.85 31st 3:11.92 17th  
38th 112 Evmorfopoulos Konstantinos (GRE)   Hardtail 19:59.65 +3:51.49 3:18.72 69th 9:31.67 29th 3:43.04 33rd 3:26.22 56th  
39th 55 Apostolou Giorgos (GRE)   Men 20:04.65 +3:56.49 2:51.66 19th 10:07.82 58th 3:45.50 42nd= 3:19.67 41st  
40th 90 Lentzas Georgios Sick and Destroyed (GRE)   Men 20:05.95 +3:57.79 3:01.93 38th 10:03.53 55th 3:46.31 46th 3:14.18 23rd  
41st 33 Kostopoulos Georgios (GRE)   Men 20:09.91 +4:01.75 3:04.22 42nd 9:44.80 36th 4:05.28 80th 3:15.61 27th  
42nd 2 Alessio Toninelli Momentum MTB Academy (ITA)   Men 20:15.26 +4:07.10 3:09.01 51st 9:50.54 45th 3:56.32 63rd 3:19.39 39th  
43rd 129 Panagiotopoulos Dimitris Mahalo Dudes (GRE)   Junior 20:16.51 +4:08.35 2:42.44 10th 10:46.93 84th 3:45.77 45th 3:01.37 9th  
44th 37 Kountouroudis Leuteris Chios MTB (GRE)   Men 20:21.69 +4:13.53 3:27.19 78th 9:47.74 41st 3:42.80 30th 3:23.96 51st  
45th 101 Golfos Konstantinos Chios MTB (GRE)   Men 20:22.77 +4:14.61 3:13.05 60th 9:49.27 43rd 3:48.56 53rd 3:31.89 62nd  
46th 72 Karathanos Costas (GRE)   Men 20:23.19 +4:15.03 3:22.01 71st 9:47.17 40th 3:45.70 44th 3:28.31 59th  
47th 49 Fourlas Giorgos (GRE)   Men 20:26.81 +4:18.65 3:13.13 63rd 10:09.77 60th 3:45.50 42nd= 3:18.41 33rd  
48th 56 Rokkakis Manos Del mama espresso bar (GRE)   Men 20:27.30 +4:19.14 3:05.18 44th 9:59.76 53rd 3:56.18 62nd 3:26.18 54th  
49th 63 Syrivelis Kostas (GRE)   Men 20:27.76 +4:19.60 3:08.10 49th 9:50.27 44th 3:49.05 55th 3:40.34 77th  
50th 111 Alatzogiannis Ioannis Silgo - silgographics.gr (GRE)   Hardtail 20:28.00 +4:19.84 3:07.78 48th 9:52.66 46th 3:45.29 39th= 3:42.27 78th  
51st 131 Manavopoulos Konstantinos (GRE)   Masters 20:30.17 +4:22.01 2:57.24 27th 10:12.48 65th 3:59.11 70th 3:21.34 44th  
52nd 113 Sezenias Mixalis CHIOS MTB (GRE)   Men 20:31.10 +4:22.94 3:00.50 35th 9:58.39 52nd 3:56.46 64th 3:35.75 71st  
53rd 52 Mpartzis Dimitris Flow Riders (GRE)   Men 20:31.58 +4:23.42 3:10.77 55th 9:55.87 48th 4:01.24 74th 3:23.70 50th  
54th 125 Skordas Konstantinos hard enduro (GRE)   Men 20:35.32 +4:27.16 2:59.90 34th 10:09.95 61st 4:05.26 79th 3:20.21 42nd  
55th 28 Kasapoglou Iordanis Xploretrails (GRE)   Men 20:36.36 +4:28.20 3:20.54 70th 9:56.04 49th 3:47.45 50th 3:32.33 63rd  
56th 16 Polychronopoulos Evagelos     Men 20:40.17 +4:32.01 2:50.65 18th 9:41.36 31st 3:43.00 32nd 4:25.16 110th  
57th 89 Tsiris Ilias Goat riders preveza (GRE)   Men 20:42.03 +4:33.87 3:25.20 74th 9:43.03 34th 3:45.29 39th= 3:48.51 88th  
58th 68 Danias Giannis ABALLON ENDURO TEAM (GRE)   Men 20:43.49 +4:35.33 3:12.52 58th 10:15.24 68th 3:56.57 67th 3:19.16 38th  
59th 100 Rizoglou Panagiotis (GRE)   Men 20:49.73 +4:41.57 3:22.61 72nd 10:04.83 57th 3:46.96 48th 3:35.33 69th  
60th 128 Varvitsiotis Konstantinos MIDDLE EARTH RACING (GRE)   Men 20:50.89 +4:42.73 3:28.21 81st 10:03.70 56th 3:53.38 57th 3:17.89 31st 0:07.71
61st 130 Eustathiou Karolos (GRE)   Masters 20:58.67 +4:50.51 3:01.59 37th 10:11.95 64th 4:12.23 85th 3:32.90 65th  
62nd 64 Giannakopoulos Konstantinos Pelion (GRE)   Men 21:01.10 +4:52.94 3:33.69 85th 9:53.70 47th 3:44.32 36th 3:49.39 89th  
63rd 79 Gerontopoulos Nikolas True Wheels (GRE)   Junior 21:01.58 +4:53.42 3:05.04 43rd 10:11.05 63rd 4:07.29 84th 3:24.38 52nd 0:13.82
64th 76 Mpakalis Dimitris ROLLING STONED (GRE)   Men 21:03.19 +4:55.03 3:27.46 80th 10:01.87 54th 3:48.97 54th 3:44.89 81st  
65th 150 Adamos Nontas (GRE)   Masters 21:14.86 +5:06.70 3:25.91 75th 10:18.21 71st 3:45.34 41st 3:45.40 82nd  
66th 93 Gkois Panagiotis (GRE)   Men 21:15.69 +5:07.53 3:09.40 53rd 10:25.45 74th 4:04.68 78th 3:36.16 72nd  
67th 36 Chasiotis Thanos (GRE)   Men 21:16.42 +5:08.26 3:27.40 79th 10:14.88 67th 4:01.32 75th 3:32.82 64th  
68th 66 Kordolemis Panagiotis ENDURO TEAM CHALKIS (GRE)   Men 21:17.18 +5:09.02 3:13.07 61st 10:40.28 79th 3:59.41 71st 3:24.42 53rd  
69th 120 Kountouris Petros ZeneTeam (GRE)   Masters 21:22.63 +5:14.47 3:11.93 56th 10:20.75 73rd 4:01.86 76th 3:48.09 86th  
70th 60 Grapsas Thomas (GRE)   Masters 21:26.71 +5:18.55 3:40.25 90th 10:16.47 70th 3:55.17 59th 3:34.82 66th  
71st 51 Aloukos Ioannis (GRE)   Masters 21:32.08 +5:23.92 3:33.96 86th 10:18.51 72nd 4:02.76 77th 3:36.85 73rd  
72nd 144 Tsalikis Panagiotis Cubicon-Enduro Team Larissa (GRE)   Men 21:32.69 +5:24.53 2:57.26 28th 11:22.35 99th 3:54.65 58th 3:18.43 34th  
73rd 142 Siafliakis Vasilios Cubicon-Enduro Team Larisa (GRE)   Masters 21:42.02 +5:33.86 3:12.83 59th 10:42.66 80th 4:14.85 88th 3:31.68 61st  
74th 116 Anthimos Kostandinos Tzortzopoulos bikes (GRE)   Hardtail 21:42.68 +5:34.52 3:31.39 82nd 10:15.77 69th 4:00.50 73rd 3:55.02 94th  
75th 67 Karozis Stylianos Chalkis enduro (GRE)   Men 21:48.29 +5:40.13 3:41.60 93rd 10:28.75 75th 3:57.86 68th 3:40.08 76th  
76th 145 Sklavounos Thanos (GRE)   Men 21:57.76 +5:49.60 3:15.49 65th 10:32.20 76th 4:43.86 113th 3:26.21 55th  
77th 138 Pallas Georgios (GRE)   Men 22:00.02 +5:51.86 3:27.17 77th 10:43.24 82nd 4:14.17 87th 3:35.44 70th  
78th 62 Galanis Georgios Κολανατοι (GRE)   Men 22:00.99 +5:52.83 3:17.94 68th 9:26.67 24th 3:40.03 27th 5:36.35 122nd  
79th 42 Tsamaslidis Giorgos Action bike club-specialized (GRE)   Hardtail 22:04.60 +5:56.44 3:53.90 103rd 10:10.53 62nd 3:55.67 61st 4:04.50 102nd  
80th 132 Paravantis Kuriakos (GRE)   Junior 22:05.70 +5:57.54 3:35.86 89th 10:37.68 78th 4:05.92 81st 3:46.24 83rd  
81st 87 Lazopoulou Vaso (GRE)   Women 22:07.50 +5:59.34 3:50.23 101st 10:12.74 66th 4:07.20 83rd 3:57.33 96th  
82nd 40 Memakis Michalis (GRE)   Masters 22:13.48 +6:05.32 3:08.31 50th 11:03.16 86th 4:23.58 100th 3:38.43 74th  
83rd 54 Athanasiou Nikos (GRE)   Men 22:19.15 +6:10.99 3:13.10 62nd 11:18.55 96th 3:56.54 66th 3:50.96 90th  
84th 39 Sermpis Spiros (GRE)   Men 22:20.73 +6:12.57 3:40.30 91st 10:34.92 77th 4:22.11 98th 3:43.40 79th  
85th 48 Koskinas Nikos Bike N' Roll (GRE)   Men 22:31.02 +6:22.86 3:47.70 99th 11:15.51 93rd 3:58.03 69th 3:29.78 60th  
86th 92 Alamanos Giorgos Goat riders preveza (GRE)   Men 22:45.88 +6:37.72 3:42.81 95th 10:42.74 81st 4:25.61 102nd 3:54.72 93rd  
87th 96 Ksideas Theofrastos (GRE)   Men 22:46.79 +6:38.63 3:25.99 76th 10:08.20 59th 3:36.84 25th 3:35.25 67th 2:00.51
88th 46 Sotirakis Vasilis (GRE)   Masters 22:47.98 +6:39.82 3:41.67 94th 11:07.27 89th 4:15.33 91st 3:43.71 80th  
89th 104 Papaioanou Nikos (GRE)   Junior 22:48.63 +6:40.47 3:35.16 87th 11:19.07 97th 4:15.02 89th 3:39.38 75th  
90th 121 Zaxariou Georgios 0R+ (GRE)   Masters 22:53.16 +6:45.00 3:35.81 88th 10:59.26 85th 4:30.80 106th 3:47.29 85th  
91st 86 Stasinou Niovi (GRE)   Women 23:00.66 +6:52.50 3:31.76 84th 11:14.95 92nd 4:15.59 92nd 3:58.36 99th  
92nd 141 Sidiropoulos Ilias Mahalo Dudes (GRE)   Junior 23:13.03 +7:04.87 4:00.37 105th 11:24.79 101st 3:59.51 72nd 3:48.36 87th  
93rd 136 Dimoliatis Dimitris DTF-POWER (GRE)   Men 23:41.95 +7:33.79 3:23.34 73rd 11:29.74 102nd 4:06.06 82nd 3:23.37 48th 1:19.44
94th 91 Lentzas Dimitrios (GRE)   Men 23:41.95 +7:33.79 4:01.92 106th 11:17.89 95th 4:20.44 96th 4:01.70 101st  
95th 85 Mpoulafentis Giorgos Κουρκουδιαλοι (GRE)   Masters 23:44.56 +7:36.40 4:16.04 110th 11:04.68 87th 4:17.11 95th 4:06.73 103rd  
96th 88 Synapidis Apollonas     Men 23:53.13 +7:44.97 4:24.40 112th 10:46.38 83rd 4:15.27 90th 4:27.08 111th  
97th 83 Mauroeidis Konstantinos ROLLING STONED (GRE)   Men 24:00.95 +7:52.79 4:46.66 116th 11:04.90 88th 4:17.09 94th 3:52.30 92nd  
98th 81 Kazantzas Dimitris ProAction/ Cube (GRE)   Men 24:17.40 +8:09.24 3:45.99 97th 12:13.58 112th 4:25.65 103rd 3:52.18 91st  
99th 34 Panagiotopoulos Ioannis ΛΟΠΠ ΕΡΥΜΑΝΘΙΟΣ ΚΑΦΡΟΣ (GRE)   Men 24:44.34 +8:36.18 3:50.83 102nd 11:52.77 106th 4:49.12 116th 4:11.62 104th  
100th 106 Dendrinos Aristidis Psycho Wheeler Team (GRE)   Hardtail 24:44.82 +8:36.66 4:24.23 111th 11:22.19 98th 4:26.73 104th 4:31.67 112th  
101st 139 Tsolkas Odysseas Middle Earth Racing (GRE)   Men 24:45.05 +8:36.89 4:36.34 115th 11:35.55 104th 4:21.10 97th 4:12.06 106th  
102nd 59 Mpougatsas Ioannis Σχολη οδηγων (GRE)   Hardtail 24:49.11 +8:40.95 5:07.74 121st 11:09.68 90th 4:16.88 93rd 4:14.81 108th  
103rd 43 Korizis Georgios Flow Riders (GRE)   Men 25:01.16 +8:53.00 3:43.39 96th 12:42.41 118th 4:35.23 107th 4:00.13 100th  
104th 29 Charitos Dimitris ????? CREW (GRE)   Men 25:10.77 +9:02.61 4:05.84 107th 12:39.96 117th 4:38.64 110th 3:46.33 84th  
105th 61 Michalopoulos Nestoras Kaggela Pantoy (GRE)   Hardtail 25:35.33 +9:27.17 5:05.51 120th 11:09.80 91st 4:37.74 109th 4:42.28 115th  
106th 146 Poultsidis Thanos Cubicon (GRE)   Men 25:43.84 +9:35.68 4:25.88 113th 12:20.06 113th 4:44.05 114th 4:13.85 107th  
107th 95 Miliaris Manos (GRE)   Masters 26:18.81 +10:10.65 4:50.33 118th 12:33.07 115th 4:43.37 112th 4:12.04 105th  
108th 148 Silelis Dimitrios Bike-30 (GRE)   Masters 26:25.07 +10:16.91 4:10.21 108th 12:07.04 110th 5:34.71 124th 4:33.11 113th  
109th 143 Korfiatis John (GRE)   Men 26:31.31 +10:23.15 2:37.98 7th 17:30.09 128th 3:23.20 12th 3:00.04 8th  
110th 70 Kaponis Giorgos (GRE)   Men 27:10.86 +11:02.70 2:30.85 3rd 18:25.83 130th 3:22.94 11th 2:51.24 4th  
111th 108 Georgitsis Giannis PSYCHOWEELER (GRE)   Men 27:13.45 +11:05.29 3:31.62 83rd 11:34.53 103rd 4:35.43 108th 3:58.08 97th 3:33.79
112th 75 Raptis Christos Ποδηλατικος Συλλογος Ωραιοκαστρου (GRE)   Men 27:25.49 +11:17.33 6:05.02 125th 11:35.63 105th 4:23.53 99th 5:21.31 121st  
113th 103 Arfanis Dimitris (GRE)   Men 27:31.91 +11:23.75 4:15.38 109th 13:11.00 123rd 5:16.65 123rd 4:48.88 116th  
114th 50 Marakis Ioulianos Flow Riders (GRE)   Men 27:36.34 +11:28.18 5:50.83 124th 12:02.65 108th 4:30.54 105th 5:12.32 119th  
115th 126 Mpirtsias Georgios Π.Δ.Σ. Οδυσσεας (GRE)   Men 27:37.88 +11:29.72 4:33.91 114th 12:45.86 119th 5:15.80 122nd 5:02.31 117th  
116th 27 Kazantzas Dimitris 2 ????? CREW (GRE)   Hardtail 28:42.30 +12:34.14 5:24.04 122nd 12:47.30 120th 5:13.67 121st 5:17.29 120th  
117th 45 Psarakis Giannis Flow Riders (GRE)   Men 29:22.83 +13:14.67 3:40.68 92nd 12:31.54 114th 4:40.52 111th 3:58.21 98th 4:31.88
118th 31 Zagos Dimitris (GRE)   Masters 31:14.56 +15:06.40 8:00.38 128th 13:03.89 122nd 5:02.01 118th 5:08.28 118th  
119th 118 Kalantzis Kostas (GRE)   Masters 32:25.14 +16:16.98 3:16.76 67th 11:23.23 100th 4:23.62 101st 3:21.40 45th 10:00.13
120th 1 Loutas Panos Asopia Team Kiato (GRE)   Hardtail 34:52.28 +18:44.12 3:48.66 100th 12:08.47 111th 5:06.29 120th 4:36.43 114th 9:12.43
121st 135 Tsirpos Ioannis DTF-POWER (GRE)   Men 38:58.61 +22:50.45 16:31.05 130th 12:03.03 109th 4:44.29 115th 3:56.47 95th 1:43.77
122nd 107 Syrianos Antonis (GRE)   Masters 42:35.94 +26:27.78 3:47.54 98th 12:34.36 116th 4:56.16 117th 4:17.67 109th 17:00.21
123rd 122 Mouzaki Eutuxia ZeneTeam (GRE)   Women 43:09.48 +27:01.32 9:16.40 129th 17:38.59 129th 6:54.53 126th 9:19.96 124th  
124th 134 Maratheftis John (GRE)   Men 47:30.18 +31:22.02 20:12.55 131st 16:21.69 127th 5:06.27 119th 5:49.67 123rd  
125th 41 Siabanis Panagiotis ΛΕΣΧΗ ΟΡΕΙΝΗΣ ΠΟΔΗΛΑΣΙΑΣ ΠΑΤΡΑΣ (GRE)   Men 72:12.54 +56:04.38 3:59.09 104th 11:15.97 94th 8:25.33 127th 36:04.59 125th 12:27.56
  97 Dokianakis Fanis (GRE)   Men DNF   4:48.47 117th 18:47.83 131st 4:14.07 86th     1:37.22
  123 Mixail Christos ΠΔΣ Οδυσσέας (GRE)   Masters DNF   6:51.87 127th 13:28.83 124th 5:42.82 125th     11:08.92
  137 Kakousis Dimitris (GRE)   Men DNF   5:35.89 123rd 12:00.16 107th 11:50.30 128th     5:42.04
  38 Psaradellis Dimitrios Del mama espresso bar (GRE)   Hardtail DNF   4:58.04 119th 12:54.97 121st         2:40.81
  78 Vlysidis Themistoklis Mt.Aigaleo Racing Crew (GRE)   Hardtail DNF   2:52.57 20th 13:35.61 125th          
  17 Roubas Thomas     Masters DNF   6:40.52 126th 15:19.09 126th          
  98 Liontos Panagiotis TRUE WHEELS (GRE)   Masters DNF